.
WxDataArchive / Data Records for 2012-05-23
2012-05-22 May 2012 2012-05-24

Data Records for Wednesday, 23 May 2012

Time	Temp	Chill	HIndex	Humid	Dewpt	 Wind 	HiWind	WindDir	Rain 	Barom 
-----	----	-----	------	-----	-----	------	------	-------	-----	----- 
00:00	57.2	57.2	57.2	65	45.5	0	0	---	0.00	29.917 
00:05	57.0	57.0	57.0	65	45.4	0	0	---	0.00	29.917 
00:10	56.9	56.9	56.9	65	45.3	0	0	---	0.00	29.917 
00:15	56.6	56.6	56.6	65	45.0	0	0	---	0.00	29.917 
00:20	56.5	56.5	56.5	66	45.3	0	0	---	0.00	29.917 
00:25	56.3	56.3	56.3	66	45.1	0	0	---	0.00	29.917 
00:30	56.2	56.2	56.2	67	45.4	0	0	---	0.00	29.920 
00:35	56.0	56.0	56.0	68	45.6	0	0	---	0.00	29.920 
00:40	55.9	55.9	55.9	68	45.5	0	0	---	0.00	29.920 
00:45	55.7	55.7	55.7	69	45.7	0	0	---	0.00	29.921 
00:50	55.6	55.6	55.6	69	45.6	0	0	---	0.00	29.921 
00:55	55.4	55.4	55.4	69	45.4	0	0	---	0.00	29.921 
01:00	55.3	55.3	55.3	69	45.3	0	0	---	0.00	29.917 
01:05	55.0	55.0	55.0	69	45.0	0	0	---	0.00	29.917 
01:10	54.8	54.8	54.8	70	45.2	0	0	---	0.00	29.917 
01:15	54.7	54.7	54.7	71	45.5	0	0	---	0.00	29.915 
01:20	54.4	54.4	54.4	72	45.6	0	0	---	0.00	29.915 
01:25	54.2	54.2	54.2	72	45.4	0	0	---	0.00	29.915 
01:30	53.9	53.9	53.9	72	45.1	0	0	---	0.00	29.909 
01:35	53.8	53.8	53.8	73	45.3	0	0	---	0.00	29.909 
01:40	53.5	53.5	53.5	73	45.1	0	0	---	0.00	29.909 
01:45	53.3	53.3	53.3	74	45.2	0	0	---	0.00	29.912 
01:50	53.2	53.2	53.2	75	45.5	0	0	---	0.00	29.912 
01:55	53.1	53.1	53.1	76	45.7	0	0	---	0.00	29.912 
02:00	52.9	52.9	52.9	77	45.9	0	0	---	0.00	29.911 
02:05	52.9	52.9	52.9	78	46.2	0	0	---	0.00	29.911 
02:10	52.8	52.8	52.8	79	46.5	0	0	---	0.00	29.911 
02:15	52.6	52.6	52.6	79	46.3	0	0	---	0.00	29.906 
02:20	52.3	52.3	52.3	79	46.0	0	0	---	0.00	29.906 
02:25	52.2	52.2	52.2	80	46.2	0	0	---	0.00	29.906 
02:30	52.0	52.0	52.0	81	46.4	0	0	---	0.00	29.906 
02:35	51.9	51.9	51.9	81	46.3	0	0	---	0.00	29.906 
02:40	51.7	51.7	51.7	81	46.1	0	0	---	0.00	29.906 
02:45	51.6	51.6	51.6	81	46.0	0	0	---	0.00	29.906 
02:50	51.4	51.4	51.4	82	46.1	0	0	---	0.00	29.906 
02:55	51.1	51.1	51.1	82	45.8	0	0	---	0.00	29.906 
03:00	51.0	51.0	51.0	82	45.7	0	0	---	0.00	29.902 
03:05	50.8	50.8	50.8	83	45.8	0	0	---	0.00	29.902 
03:10	50.7	50.7	50.7	83	45.7	0	0	---	0.00	29.902 
03:15	50.5	50.5	50.5	84	45.8	0	0	---	0.00	29.893 
03:20	50.5	50.5	50.5	84	45.8	0	0	---	0.00	29.893 
03:25	50.5	50.5	50.5	85	46.2	0	0	---	0.00	29.893 
03:30	50.4	50.4	50.4	85	46.1	0	0	---	0.00	29.898 
03:35	50.2	50.2	50.2	85	45.9	0	0	---	0.00	29.898 
03:40	50.1	50.1	50.1	86	46.1	0	0	---	0.00	29.898 
03:45	50.1	50.1	50.1	86	46.1	0	0	---	0.00	29.896 
03:50	49.9	49.9	49.9	86	45.9	0	0	---	0.00	29.896 
03:55	49.8	49.8	49.8	87	46.1	0	0	---	0.00	29.896 
04:00	49.6	49.6	49.6	87	45.9	0	0	---	0.00	29.894 
04:05	49.6	49.6	49.6	87	45.9	0	0	---	0.00	29.894 
04:10	49.5	49.5	49.5	87	45.8	0	0	---	0.00	29.894 
04:15	49.5	49.5	49.5	88	46.1	0	0	---	0.00	29.900 
04:20	49.5	49.5	49.5	88	46.1	0	0	---	0.00	29.900 
04:25	49.4	49.4	49.4	88	46.0	0	0	---	0.00	29.900 
04:30	49.4	49.4	49.4	88	46.0	0	0	---	0.00	29.901 
04:35	49.2	49.2	49.2	88	45.8	0	0	---	0.00	29.901 
04:40	49.1	49.1	49.1	88	45.7	0	0	---	0.00	29.901 
04:45	49.1	49.1	49.1	88	45.7	0	0	---	0.00	29.902 
04:50	49.1	49.1	49.1	88	45.7	0	0	---	0.00	29.902 
04:55	48.9	48.9	48.9	89	45.8	0	0	---	0.00	29.902 
05:00	48.9	48.9	48.9	89	45.8	0	0	---	0.00	29.903 
05:05	48.9	48.9	48.9	89	45.8	0	0	---	0.00	29.903 
05:10	48.8	48.8	48.8	89	45.7	0	0	---	0.00	29.903 
05:15	48.8	48.8	48.8	89	45.7	0	0	---	0.00	29.904 
05:20	48.8	48.8	48.8	90	46.0	0	0	---	0.00	29.904 
05:25	48.8	48.8	48.8	90	46.0	0	0	---	0.00	29.904 
05:30	48.8	48.8	48.8	90	46.0	0	0	---	0.00	29.906 
05:35	48.8	48.8	48.8	90	46.0	0	0	---	0.00	29.906 
05:40	48.6	48.6	48.6	90	45.8	0	0	---	0.00	29.906 
05:45	48.6	48.6	48.6	90	45.8	0	0	---	0.00	29.907 
05:50	48.6	48.6	48.6	91	46.1	0	0	---	0.00	29.907 
05:55	48.6	48.6	48.6	91	46.1	0	0	---	0.00	29.907 
06:00	48.6	48.6	48.6	91	46.1	0	0	---	0.00	29.908 
06:05	48.6	48.6	48.6	91	46.1	0	0	---	0.00	29.908 
06:10	48.6	48.6	48.6	91	46.1	0	0	---	0.00	29.908 
06:15	48.5	48.5	48.5	91	46.0	0	0	---	0.00	29.908 
06:20	48.5	48.5	48.5	91	46.0	0	0	---	0.00	29.908 
06:25	48.5	48.5	48.5	91	46.0	0	0	---	0.00	29.908 
06:30	48.5	48.5	48.5	92	46.3	0	0	---	0.00	29.908 
06:35	48.5	48.5	48.5	92	46.3	0	0	---	0.00	29.908 
06:40	48.6	48.6	48.6	92	46.4	0	0	---	0.00	29.908 
06:45	48.6	48.6	48.6	92	46.4	0	0	---	0.00	29.910 
06:50	48.6	48.6	48.6	92	46.4	0	0	---	0.00	29.910 
06:55	48.8	48.8	48.8	92	46.6	0	0	---	0.00	29.910 
07:00	48.9	48.9	48.9	92	46.7	0	0	---	0.00	29.911 
07:05	49.2	49.2	49.2	92	47.0	0	0	---	0.00	29.911 
07:10	49.4	49.4	49.4	92	47.2	0	0	---	0.00	29.911 
07:15	49.8	49.8	49.8	93	47.9	0	0	---	0.00	29.921 
07:20	50.1	50.1	50.1	93	48.2	0	0	---	0.00	29.921 
07:25	50.7	50.7	50.7	93	48.7	0	0	---	0.00	29.921 
07:30	51.3	51.3	51.3	93	49.3	0	0	---	0.00	29.923 
07:35	51.9	51.9	51.9	93	49.9	0	0	---	0.00	29.923 
07:40	52.5	52.5	52.5	93	50.5	0	0	---	0.00	29.923 
07:45	53.5	53.5	53.5	93	51.5	0	0	---	0.00	29.925 
07:50	54.4	54.4	54.4	92	52.1	0	0	---	0.00	29.925 
07:55	55.7	55.7	55.7	91	53.1	0	2	292	0.00	29.925 
08:00	57.0	57.0	57.0	86	52.9	0	1	292	0.00	29.920 
08:05	58.3	58.3	58.3	82	52.8	0	1	292	0.00	29.920 
08:10	59.3	59.3	59.3	80	53.1	0	1	292	0.00	29.920 
08:15	60.4	60.4	60.4	76	52.8	0	1	292	0.00	29.927 
08:20	61.0	61.0	61.0	73	52.3	1	3	292	0.00	29.927 
08:25	61.5	61.5	61.5	73	52.8	1	2	292	0.00	29.927 
08:30	62.1	62.1	62.1	73	53.3	1	2	292	0.00	29.929 
08:35	62.6	62.6	62.6	72	53.4	2	4	90	0.00	29.929 
08:40	63.1	63.1	63.1	70	53.2	1	3	90	0.00	29.929 
08:45	63.7	63.7	63.7	69	53.3	1	3	90	0.00	29.929 
08:50	64.3	64.3	64.3	69	53.9	1	4	90	0.00	29.929 
08:55	64.8	64.8	64.8	67	53.6	1	3	90	0.00	29.929 
09:00	65.3	65.3	65.3	66	53.6	1	3	90	0.00	29.925 
09:05	65.6	65.6	65.6	65	53.5	1	4	90	0.00	29.925 
09:10	66.3	66.3	66.3	63	53.3	1	3	90	0.00	29.925 
09:15	66.9	66.9	66.9	62	53.4	0	2	90	0.00	29.929 
09:20	67.6	67.6	67.6	60	53.2	1	4	90	0.00	29.929 
09:25	67.9	67.9	67.9	60	53.5	1	4	90	0.00	29.929 
09:30	68.1	68.1	68.1	57	52.3	2	5	90	0.00	29.928 
09:35	68.3	68.3	68.3	57	52.5	2	5	90	0.00	29.928 
09:40	68.8	68.8	68.8	57	52.9	0	3	68	0.00	29.928 
09:45	69.3	69.3	69.3	54	51.9	1	4	68	0.00	29.927 
09:50	69.6	69.6	69.6	54	52.2	2	5	68	0.00	29.927 
09:55	69.8	69.8	69.8	54	52.4	1	4	90	0.00	29.927 
10:00	70.3	70.3	70.3	52	51.8	1	3	112	0.00	29.922 
10:05	70.8	70.8	70.8	53	52.8	2	5	90	0.00	29.922 
10:10	71.1	71.1	71.1	52	52.6	1	3	68	0.00	29.922 
10:15	71.5	71.5	71.5	54	54.0	2	5	68	0.00	29.920 
10:20	71.8	71.8	71.8	52	53.2	1	3	90	0.00	29.920 
10:25	72.5	72.5	72.5	51	53.3	1	6	90	0.00	29.920 
10:30	72.3	72.3	72.3	52	53.7	2	7	68	0.00	29.917 
10:35	72.1	72.1	72.1	51	53.0	2	5	68	0.00	29.917 
10:40	72.5	72.5	72.5	51	53.3	1	6	68	0.00	29.917 
10:45	72.7	72.7	72.7	52	54.0	2	4	90	0.00	29.916 
10:50	72.8	72.8	72.8	50	53.1	2	4	90	0.00	29.916 
10:55	72.8	72.8	72.8	50	53.1	2	5	90	0.00	29.916 
11:00	73.3	73.3	73.3	50	53.5	1	2	90	0.00	29.916 
11:05	73.7	73.7	73.7	49	53.3	0	2	90	0.00	29.916 
11:10	73.9	73.9	73.9	49	53.5	1	5	90	0.00	29.916 
11:15	74.4	74.4	74.4	47	52.8	1	4	90	0.00	29.915 
11:20	74.7	74.7	74.7	46	52.5	0	2	112	0.00	29.915 
11:25	75.1	75.1	77.7	46	52.9	1	4	112	0.00	29.915 
11:30	75.6	75.6	77.8	46	53.3	1	2	112	0.00	29.912 
11:35	76.0	76.0	78.0	45	53.1	1	3	112	0.00	29.912 
11:40	76.1	76.1	78.0	44	52.6	2	5	68	0.00	29.912 
11:45	75.8	75.8	77.9	44	52.3	2	6	68	0.00	29.913 
11:50	75.6	75.6	77.8	43	51.5	2	5	90	0.00	29.913 
11:55	75.8	75.8	77.9	45	52.9	1	3	90	0.00	29.913 
12:00	76.3	76.3	78.1	44	52.8	1	3	90	0.00	29.913 
12:05	77.2	77.2	78.4	41	51.7	1	3	90	0.00	29.913 
12:10	77.6	77.6	78.6	41	52.0	1	4	90	0.00	29.913 
12:15	77.9	77.9	78.7	40	51.6	1	3	90	0.00	29.908 
12:20	78.1	78.1	78.8	41	52.5	1	4	112	0.00	29.908 
12:25	77.9	77.9	78.8	42	52.9	1	4	135	0.00	29.908 
12:30	77.7	77.7	78.7	42	52.8	1	5	90	0.00	29.902 
12:35	77.7	77.7	78.7	42	52.8	1	4	90	0.00	29.902 
12:40	77.6	77.6	78.6	42	52.7	1	3	90	0.00	29.902 
12:45	77.7	77.7	78.6	41	52.1	2	5	90	0.00	29.898 
12:50	77.7	77.7	78.7	42	52.8	2	4	90	0.00	29.898 
12:55	77.7	77.7	78.7	43	53.4	2	7	135	0.00	29.898 
13:00	77.6	77.6	78.7	43	53.3	2	5	90	0.00	29.896 
13:05	77.6	77.6	78.7	44	53.9	1	5	90	0.00	29.896 
13:10	77.9	77.9	78.8	43	53.6	1	4	90	0.00	29.896 
13:15	78.3	78.3	78.9	40	52.0	2	5	90	0.00	29.897 
13:20	78.3	78.3	79.1	43	53.9	2	5	90	0.00	29.897 
13:25	78.5	78.5	79.0	40	52.1	0	2	90	0.00	29.897 
13:30	79.2	79.2	79.6	43	54.7	1	2	90	0.00	29.894 
13:35	79.8	79.8	79.7	39	52.6	1	3	90	0.00	29.894 
13:40	79.6	79.6	79.6	39	52.4	1	3	270	0.00	29.894 
13:45	79.4	79.4	79.5	39	52.3	2	5	90	0.00	29.886 
13:50	79.0	79.0	79.4	42	53.9	2	7	90	0.00	29.886 
13:55	79.2	79.2	79.3	39	52.1	1	4	90	0.00	29.886 
14:00	79.8	79.8	79.8	40	53.3	1	5	45	0.00	29.884 
14:05	79.8	79.8	79.8	40	53.3	1	3	112	0.00	29.884 
14:10	80.3	80.3	80.4	43	55.7	0	2	112	0.00	29.884 
14:15	80.9	80.9	80.3	37	52.2	1	5	248	0.00	29.883 
14:20	80.9	80.9	80.4	38	52.9	1	5	248	0.00	29.883 
14:25	81.1	81.1	80.6	39	53.8	1	6	315	0.00	29.883 
14:30	81.2	81.2	80.5	37	52.4	2	5	112	0.00	29.879 
14:35	81.2	81.2	80.6	38	53.1	2	6	90	0.00	29.879 
14:40	81.1	81.1	80.5	38	53.1	1	4	112	0.00	29.879 
14:45	80.7	80.7	80.2	38	52.7	2	6	112	0.00	29.872 
14:50	80.5	80.5	80.1	38	52.5	2	6	90	0.00	29.872 
14:55	80.9	80.9	80.5	39	53.6	1	5	90	0.00	29.872 
15:00	80.5	80.5	80.2	39	53.2	1	2	90	0.00	29.868 
15:05	80.3	80.3	80.1	39	53.1	1	3	90	0.00	29.868 
15:10	80.9	80.9	80.5	39	53.6	1	3	112	0.00	29.868 
15:15	81.6	81.6	80.8	37	52.8	0	2	158	0.00	29.860 
15:20	82.2	82.2	81.3	37	53.3	2	5	90	0.00	29.860 
15:25	82.4	82.4	81.2	35	52.0	1	2	90	0.00	29.860 
15:30	82.4	82.4	81.4	37	53.5	0	2	90	0.00	29.854 
15:35	82.8	82.8	81.8	37	53.8	2	5	112	0.00	29.854 
15:40	82.8	82.8	81.7	36	53.1	2	5	68	0.00	29.854 
15:45	81.4	81.4	80.8	38	53.3	2	5	68	0.00	29.851 
15:50	80.7	80.7	80.4	40	54.1	1	4	68	0.00	29.851 
15:55	81.2	81.2	81.0	42	55.9	1	3	292	0.00	29.851 
16:00	82.0	82.0	81.3	39	54.6	1	3	68	0.00	29.846 
16:05	82.4	82.4	81.4	37	53.5	2	5	90	0.00	29.846 
16:10	81.6	81.6	80.9	38	53.5	1	3	112	0.00	29.846 
16:15	81.1	81.1	80.6	39	53.8	0	1	112	0.00	29.842 
16:20	81.4	81.4	80.9	39	54.0	1	3	270	0.00	29.842 
16:25	82.0	82.0	81.3	39	54.6	1	4	112	0.00	29.842 
16:30	82.6	82.6	81.6	37	53.7	1	3	112	0.00	29.834 
16:35	82.6	82.6	81.5	36	52.9	2	6	112	0.00	29.834 
16:40	82.2	82.2	81.3	37	53.3	1	3	45	0.00	29.834 
16:45	81.4	81.4	80.7	37	52.6	1	3	68	0.00	29.829 
16:50	80.9	80.9	80.6	40	54.3	1	3	68	0.00	29.829 
16:55	81.4	81.4	80.8	38	53.3	1	3	292	0.00	29.829 
17:00	82.0	82.0	81.5	40	55.3	0	3	292	0.00	29.825 
17:05	82.6	82.6	81.6	37	53.7	1	3	135	0.00	29.825 
17:10	82.8	82.8	81.8	37	53.8	1	4	90	0.00	29.825 
17:15	82.8	82.8	81.8	37	53.8	1	3	90	0.00	29.819 
17:20	82.4	82.4	81.2	35	52.0	1	4	270	0.00	29.819 
17:25	82.4	82.4	81.4	37	53.5	1	4	270	0.00	29.819 
17:30	82.4	82.4	81.3	36	52.7	1	4	90	0.00	29.817 
17:35	82.4	82.4	81.4	37	53.5	1	3	112	0.00	29.817 
17:40	82.2	82.2	81.2	36	52.6	1	3	112	0.00	29.817 
17:45	82.2	82.2	81.3	37	53.3	2	5	90	0.00	29.810 
17:50	81.8	81.8	81.0	37	53.0	1	5	90	0.00	29.810 
17:55	81.4	81.4	80.7	37	52.6	2	5	90	0.00	29.810 
18:00	81.2	81.2	80.7	39	53.9	1	3	90	0.00	29.809 
18:05	81.2	81.2	80.7	39	53.9	0	3	90	0.00	29.809 
18:10	81.4	81.4	81.1	41	55.4	0	1	90	0.00	29.809 
18:15	81.4	81.4	80.8	38	53.3	1	4	90	0.00	29.806 
18:20	81.1	81.1	80.6	39	53.8	1	4	270	0.00	29.806 
18:25	81.2	81.2	80.7	39	53.9	1	4	90	0.00	29.806 
18:30	81.1	81.1	80.7	40	54.5	0	2	90	0.00	29.805 
18:35	81.1	81.1	80.6	39	53.8	0	2	90	0.00	29.805 
18:40	81.1	81.1	80.6	39	53.8	1	4	90	0.00	29.805 
18:45	80.7	80.7	80.3	39	53.4	2	5	112	0.00	29.803 
18:50	80.5	80.5	80.2	39	53.2	1	4	112	0.00	29.803 
18:55	80.3	80.3	80.1	40	53.8	1	4	90	0.00	29.803 
19:00	80.3	80.3	80.2	41	54.4	1	3	90	0.00	29.807 
19:05	80.1	80.1	80.0	40	53.6	0	4	90	0.00	29.807 
19:10	79.9	79.9	79.8	39	52.7	1	4	112	0.00	29.807 
19:15	79.9	79.9	79.9	40	53.4	1	4	68	0.00	29.802 
19:20	79.8	79.8	79.8	40	53.3	0	3	22	0.00	29.802 
19:25	79.6	79.6	79.6	39	52.4	1	5	112	0.00	29.802 
19:30	79.6	79.6	79.7	40	53.1	1	3	90	0.00	29.803 
19:35	79.4	79.4	79.5	40	52.9	1	4	90	0.00	29.803 
19:40	79.4	79.4	79.5	40	52.9	1	2	90	0.00	29.803 
19:45	79.2	79.2	79.4	40	52.8	0	2	90	0.00	29.807 
19:50	79.0	79.0	79.3	40	52.6	1	3	90	0.00	29.807 
19:55	79.0	79.0	79.4	41	53.3	0	4	135	0.00	29.807 
20:00	78.6	78.6	79.1	41	52.9	1	5	135	0.00	29.811 
20:05	78.5	78.5	79.1	42	53.5	1	5	90	0.00	29.811 
20:10	78.5	78.5	79.1	42	53.5	0	2	90	0.00	29.811 
20:15	78.3	78.3	79.0	42	53.3	0	2	90	0.00	29.811 
20:20	78.1	78.1	78.9	42	53.1	1	3	90	0.00	29.811 
20:25	77.9	77.9	78.8	42	52.9	1	5	68	0.00	29.811 
20:30	77.7	77.7	78.7	43	53.4	0	2	68	0.00	29.811 
20:35	77.7	77.7	78.7	43	53.4	1	3	68	0.00	29.811 
20:40	77.6	77.6	78.7	43	53.3	0	2	68	0.00	29.811 
20:45	77.4	77.4	78.6	44	53.8	0	2	68	0.00	29.811 
20:50	77.2	77.2	78.5	44	53.6	1	3	68	0.00	29.811 
20:55	77.0	77.0	78.4	44	53.4	0	1	68	0.00	29.811 
21:00	76.8	76.8	78.3	45	53.8	0	1	68	0.00	29.812 
21:05	76.5	76.5	78.2	45	53.6	0	3	68	0.00	29.812 
21:10	76.3	76.3	78.1	46	54.0	0	2	68	0.00	29.812 
21:15	76.0	76.0	78.0	46	53.7	0	1	68	0.00	29.810 
21:20	75.6	75.6	77.9	47	53.9	0	2	68	0.00	29.810 
21:25	75.3	75.3	77.7	47	53.7	0	1	68	0.00	29.810 
21:30	74.9	74.9	74.9	48	53.9	0	1	68	0.00	29.813 
21:35	74.7	74.7	74.7	48	53.7	0	1	68	0.00	29.813 
21:40	74.6	74.6	74.6	49	54.2	0	1	68	0.00	29.813 
21:45	74.2	74.2	74.2	49	53.8	0	0	---	0.00	29.821 
21:50	74.0	74.0	74.0	50	54.2	0	1	68	0.00	29.821 
21:55	73.7	73.7	73.7	50	53.9	0	1	68	0.00	29.821 
22:00	73.5	73.5	73.5	51	54.2	0	0	---	0.00	29.823 
22:05	73.3	73.3	73.3	51	54.1	0	0	---	0.00	29.823 
22:10	73.0	73.0	73.0	52	54.3	0	0	---	0.00	29.823 
22:15	72.7	72.7	72.7	53	54.6	0	0	---	0.00	29.824 
22:20	72.3	72.3	72.3	53	54.2	0	0	---	0.00	29.824 
22:25	72.1	72.1	72.1	54	54.5	0	1	68	0.00	29.824 
22:30	71.8	71.8	71.8	54	54.2	0	0	---	0.00	29.828 
22:35	71.6	71.6	71.6	55	54.6	0	0	---	0.00	29.828 
22:40	71.3	71.3	71.3	56	54.8	0	0	---	0.00	29.828 
22:45	71.1	71.1	71.1	56	54.6	0	0	---	0.00	29.829 
22:50	70.8	70.8	70.8	57	54.8	0	0	---	0.00	29.829 
22:55	70.6	70.6	70.6	57	54.6	0	0	---	0.00	29.829 
23:00	70.3	70.3	70.3	58	54.8	0	0	---	0.00	29.830 
23:05	70.1	70.1	70.1	58	54.6	0	0	---	0.00	29.830 
23:10	69.8	69.8	69.8	58	54.3	0	0	---	0.00	29.830 
23:15	69.6	69.6	69.6	58	54.2	0	0	---	0.00	29.828 
23:20	69.4	69.4	69.4	59	54.4	0	0	---	0.00	29.828 
23:25	69.3	69.3	69.3	59	54.3	0	0	---	0.00	29.828 
23:30	69.3	69.3	69.3	60	54.8	0	0	---	0.00	29.828 
23:35	69.1	69.1	69.1	60	54.6	0	0	---	0.00	29.828 
23:40	69.1	69.1	69.1	60	54.6	0	0	---	0.00	29.828 
23:45	68.9	68.9	68.9	61	54.9	0	0	---	0.00	29.828 
23:50	68.8	68.8	68.8	61	54.8	0	0	---	0.00	29.828 
23:55	68.8	68.8	68.8	61	54.8	0	0	---	0.00	29.828 

CoCoRaHS
IN-AL-39
A2 Web Hosting
Creative Commons License
GoDaddy
search engine by freefind advanced

loaded 2018-11-19 11:40:44 • last modified 2010-11-18 10:43:29
Privacy PolicyDisclaimer
• wx.awcolley.com is powered by PmWiki v.2002016 •
• all content (unless otherwise noted) © 2018 A W Colley